Time;durP1;ratioP1;P1;durP2;ratioP2;P2;SDS_P1;SDS_P2;PMS_P1;PMS_P2;Temp;Humidity;BMP_temperature;BMP_pressure;BME280_temperature;BME280_humidity;BME280_pressure;Samples;Min_cycle;Max_cycle;Signal;HPM_P1;HPM_P2
2023/12/03 00:00:10;;;;;;;108.93;45.13;;;;;;;-1.23;100.00;99859.09;4870955;29;20406;-92
2023/12/03 00:02:36;;;;;;;132.63;49.53;;;;;;;-1.25;100.00;99856.59;4855753;29;20043;-93
2023/12/03 00:05:03;;;;;;;232.43;56.40;;;;;;;-1.22;100.00;99864.22;4884880;29;20039;-92
2023/12/03 00:07:32;;;;;;;174.48;55.47;;;;;;;-1.34;100.00;99857.94;4859313;29;20126;-93
2023/12/03 00:09:58;;;;;;;260.00;54.92;;;;;;;-1.47;100.00;99856.91;4883694;29;20044;-93
2023/12/03 00:12:28;;;;;;;239.18;55.08;;;;;;;-1.58;100.00;99857.47;4896106;29;20119;-92
2023/12/03 00:15:14;;;;;;;323.00;60.60;;;;;;;-1.58;100.00;99860.06;4887551;29;20799;-93
2023/12/03 00:17:45;;;;;;;321.13;73.35;;;;;;;-1.58;100.00;99854.88;4880629;29;20485;-93
2023/12/03 00:20:11;;;;;;;344.63;67.82;;;;;;;-1.66;100.00;99853.53;4860936;29;20041;-92
2023/12/03 00:22:37;;;;;;;320.35;66.53;;;;;;;-1.69;100.00;99858.84;4898949;29;20043;-91
2023/12/03 00:25:03;;;;;;;362.52;67.57;;;;;;;-1.73;100.00;99853.91;4890126;29;20048;-93
2023/12/03 00:27:28;;;;;;;183.15;56.90;;;;;;;-1.71;100.00;99857.28;4883022;29;20502;-93
2023/12/03 00:29:54;;;;;;;139.10;48.70;;;;;;;-1.72;100.00;99847.84;4868868;29;20084;-95
2023/12/03 00:32:20;;;;;;;166.32;53.67;;;;;;;-1.67;100.00;99851.84;4899871;29;20044;-95
2023/12/03 00:34:46;;;;;;;297.77;59.00;;;;;;;-1.67;100.00;99851.03;4882554;29;20063;-93
2023/12/03 00:37:11;;;;;;;160.05;52.65;;;;;;;-1.69;100.00;99847.69;4876777;29;20059;-92
2023/12/03 00:39:37;;;;;;;180.45;47.35;;;;;;;-1.68;100.00;99851.94;4881581;29;20037;-93
2023/12/03 00:42:03;;;;;;;89.60;43.63;;;;;;;-1.63;100.00;99848.19;4860537;29;20039;-92
2023/12/03 00:44:29;;;;;;;87.55;45.63;;;;;;;-1.52;100.00;99850.22;4894651;29;20040;-92
2023/12/03 00:46:54;;;;;;;182.98;59.42;;;;;;;-1.45;100.00;99842.13;4884523;29;20040;-93
2023/12/03 00:49:20;;;;;;;231.88;60.97;;;;;;;-1.41;100.00;99843.63;4862035;29;20095;-92
2023/12/03 00:51:46;;;;;;;126.15;58.25;;;;;;;-1.33;100.00;99844.06;4893378;29;20038;-92
2023/12/03 00:54:12;;;;;;;126.28;54.30;;;;;;;-1.26;100.00;99842.78;4883504;29;20040;-93
2023/12/03 00:56:37;;;;;;;101.57;48.97;;;;;;;-1.20;100.00;99839.03;4892176;29;20079;-92
2023/12/03 00:59:03;;;;;;;131.52;44.17;;;;;;;-1.18;100.00;99850.16;4889178;29;20051;-92
2023/12/03 01:01:29;;;;;;;163.27;47.92;;;;;;;-1.21;100.00;99844.31;4891235;29;20498;-92
2023/12/03 01:03:55;;;;;;;181.63;61.38;;;;;;;-1.16;100.00;99847.47;4875948;29;20040;-93
2023/12/03 01:06:20;;;;;;;197.13;50.30;;;;;;;-1.11;100.00;99852.44;4885897;29;20045;-93
2023/12/03 01:08:46;;;;;;;85.18;39.85;;;;;;;-1.09;100.00;99854.00;4899965;29;20111;-92
2023/12/03 01:11:12;;;;;;;137.52;51.53;;;;;;;-1.03;100.00;99855.44;4894752;29;20040;-92
2023/12/03 01:13:37;;;;;;;109.47;51.13;;;;;;;-1.03;100.00;99847.66;4889872;29;20040;-93
2023/12/03 01:16:04;;;;;;;94.18;42.05;;;;;;;-1.01;100.00;99840.63;4884157;29;20048;-92
2023/12/03 01:18:30;;;;;;;83.03;40.08;;;;;;;-0.98;100.00;99837.84;4883645;29;20047;-92
2023/12/03 01:20:55;;;;;;;133.50;44.15;;;;;;;-0.97;100.00;99834.34;4867060;29;20040;-92
2023/12/03 01:23:21;;;;;;;100.38;38.35;;;;;;;-0.96;100.00;99835.19;4884051;29;20379;-93
2023/12/03 01:25:47;;;;;;;143.88;45.15;;;;;;;-0.96;100.00;99827.41;4878400;29;20487;-92
2023/12/03 01:28:13;;;;;;;113.35;44.78;;;;;;;-1.02;100.00;99819.03;4904697;29;20036;-92
2023/12/03 01:30:39;;;;;;;91.18;40.17;;;;;;;-1.02;100.00;99815.63;4884169;29;20072;-91
2023/12/03 01:33:05;;;;;;;84.85;39.05;;;;;;;-1.06;100.00;99822.72;4899251;29;20024;-92
2023/12/03 01:35:30;;;;;;;100.18;42.22;;;;;;;-1.05;100.00;99811.41;4879829;29;20043;-92
2023/12/03 01:37:56;;;;;;;92.00;40.15;;;;;;;-1.03;100.00;99824.28;4873162;29;20036;-92
2023/12/03 01:40:22;;;;;;;112.35;39.95;;;;;;;-1.02;100.00;99820.81;4873156;29;20063;-92
2023/12/03 01:42:47;;;;;;;96.25;36.42;;;;;;;-1.04;100.00;99810.50;4869050;29;20479;-92
2023/12/03 01:45:13;;;;;;;74.32;36.42;;;;;;;-1.03;100.00;99816.50;4884168;29;20051;-92
2023/12/03 01:47:39;;;;;;;191.35;45.53;;;;;;;-1.02;100.00;99810.41;4890261;29;20033;-93
2023/12/03 01:50:06;;;;;;;203.77;45.75;;;;;;;-0.98;100.00;99801.53;4860185;29;20032;-92
2023/12/03 01:52:35;;;;;;;246.77;50.72;;;;;;;-0.96;100.00;99797.09;4883992;29;20118;-92
2023/12/03 01:55:02;;;;;;;192.93;49.92;;;;;;;-1.02;100.00;99795.69;4884749;29;20179;-91
2023/12/03 01:57:27;;;;;;;217.18;50.45;;;;;;;-1.08;100.00;99782.22;4891901;29;20512;-92
2023/12/03 01:59:54;;;;;;;190.50;52.13;;;;;;;-1.08;100.00;99796.03;4887119;29;20032;-92
2023/12/03 02:02:20;;;;;;;178.48;49.50;;;;;;;-1.16;100.00;99793.84;4884742;29;20075;-92
2023/12/03 02:04:46;;;;;;;153.65;47.38;;;;;;;-1.21;100.00;99793.25;4887859;29;20398;-93
2023/12/03 02:07:11;;;;;;;315.90;57.63;;;;;;;-1.17;100.00;99802.56;4868262;29;20047;-92
2023/12/03 02:09:38;;;;;;;168.15;51.17;;;;;;;-1.12;100.00;99802.31;4893347;29;20043;-92
2023/12/03 02:12:05;;;;;;;213.18;53.33;;;;;;;-1.07;100.00;99787.34;4887552;29;20084;-92
2023/12/03 02:14:30;;;;;;;247.48;52.95;;;;;;;-1.10;100.00;99781.47;4902961;29;20055;-93
2023/12/03 02:16:56;;;;;;;247.00;52.45;;;;;;;-1.13;100.00;99787.66;4903249;29;20044;-93
2023/12/03 02:19:22;;;;;;;268.58;57.42;;;;;;;-1.10;100.00;99791.84;4903884;29;20075;-93
2023/12/03 02:21:48;;;;;;;186.50;50.15;;;;;;;-1.05;100.00;99788.06;4915183;29;20073;-92
2023/12/03 02:24:13;;;;;;;199.52;51.80;;;;;;;-0.99;100.00;99786.91;4871215;29;20043;-92
2023/12/03 02:26:39;;;;;;;233.32;51.15;;;;;;;-0.94;100.00;99790.06;4883716;29;20056;-92
2023/12/03 02:29:05;;;;;;;171.88;41.42;;;;;;;-0.90;100.00;99794.16;4894535;29;20036;-92
2023/12/03 02:31:30;;;;;;;174.45;45.08;;;;;;;-0.88;100.00;99789.72;4898130;29;20056;-92
2023/12/03 02:34:07;;;;;;;139.13;42.72;;;;;;;-0.84;100.00;99785.19;4900572;29;20037;-93
2023/12/03 02:36:33;;;;;;;149.30;41.70;;;;;;;-0.89;100.00;99792.38;4918448;29;20035;-92
2023/12/03 02:38:59;;;;;;;233.35;47.60;;;;;;;-0.86;100.00;99797.41;4884175;29;20118;-93
2023/12/03 02:41:24;;;;;;;97.80;38.72;;;;;;;-0.85;100.00;99793.06;4885874;29;20044;-92
2023/12/03 02:43:50;;;;;;;139.35;40.60;;;;;;;-0.81;100.00;99797.16;4906847;29;20028;-92
2023/12/03 02:46:16;;;;;;;113.68;37.10;;;;;;;-0.78;100.00;99795.22;4867966;29;20491;-92
2023/12/03 02:48:42;;;;;;;130.23;42.25;;;;;;;-0.76;100.00;99790.78;4887825;29;20040;-92
2023/12/03 02:51:08;;;;;;;82.03;37.58;;;;;;;-0.75;100.00;99795.03;4885299;29;20119;-93
2023/12/03 02:53:36;;;;;;;109.78;42.05;;;;;;;-0.71;100.00;99792.28;4884915;29;20039;-92
2023/12/03 02:56:02;;;;;;;209.57;47.17;;;;;;;-0.75;100.00;99802.81;4899926;29;20063;-93
2023/12/03 02:58:28;;;;;;;156.60;45.25;;;;;;;-0.77;100.00;99798.66;4896122;29;20041;-92
2023/12/03 03:00:54;;;;;;;194.63;48.80;;;;;;;-0.81;100.00;99797.97;4894543;29;20501;-93
2023/12/03 03:03:19;;;;;;;206.80;51.35;;;;;;;-0.92;100.00;99792.56;4917188;29;20082;-92
2023/12/03 03:05:45;;;;;;;102.03;44.60;;;;;;;-0.99;100.00;99784.31;4880971;29;20112;-92
2023/12/03 03:08:11;;;;;;;133.02;46.97;;;;;;;-1.07;100.00;99776.97;4864229;29;20492;-92
2023/12/03 03:10:37;;;;;;;97.28;41.05;;;;;;;-1.05;100.00;99793.25;4890576;29;20047;-92
2023/12/03 03:13:02;;;;;;;90.40;39.58;;;;;;;-1.00;100.00;99793.00;4894365;29;20034;-92
2023/12/03 03:15:28;;;;;;;85.93;35.20;;;;;;;-0.91;100.00;99794.25;4871627;29;20042;-92
2023/12/03 03:17:54;;;;;;;91.15;38.83;;;;;;;-0.83;100.00;99793.81;4899098;29;20044;-92
2023/12/03 03:20:23;;;;;;;108.93;30.98;;;;;;;-0.76;100.00;99779.56;4883169;29;20474;-92
2023/12/03 03:22:49;;;;;;;75.50;25.05;;;;;;;-0.71;100.00;99781.88;4901174;29;20047;-92
2023/12/03 03:25:16;;;;;;;91.82;25.13;;;;;;;-0.76;100.00;99764.84;4864471;29;20120;-92
2023/12/03 03:27:41;;;;;;;124.53;25.17;;;;;;;-0.71;100.00;99777.53;4879049;29;20095;-92
2023/12/03 03:30:08;;;;;;;143.68;22.23;;;;;;;-0.72;100.00;99773.28;4881101;29;20081;-91
2023/12/03 03:32:34;;;;;;;189.57;22.63;;;;;;;-0.70;100.00;99774.00;4904220;29;20439;-92
2023/12/03 03:35:00;;;;;;;148.25;22.20;;;;;;;-0.66;100.00;99777.28;4873910;29;20126;-92
2023/12/03 03:37:26;;;;;;;133.25;21.40;;;;;;;-0.63;100.00;99770.16;4909863;29;20028;-92
2023/12/03 03:39:52;;;;;;;167.15;21.60;;;;;;;-0.58;100.00;99756.91;4876106;29;20036;-90
2023/12/03 03:42:18;;;;;;;125.85;20.23;;;;;;;-0.52;100.00;99756.56;4873393;29;20436;-92
2023/12/03 03:44:43;;;;;;;147.60;21.08;;;;;;;-0.46;100.00;99767.50;4877660;29;20095;-92
2023/12/03 03:47:12;;;;;;;154.30;19.33;;;;;;;-0.42;100.00;99764.63;4881640;29;20035;-92
2023/12/03 03:49:38;;;;;;;232.23;22.35;;;;;;;-0.45;100.00;99758.78;4901157;29;20115;-92
2023/12/03 03:52:04;;;;;;;82.50;21.13;;;;;;;-0.42;100.00;99761.19;4869694;29;20586;-92
2023/12/03 03:54:30;;;;;;;122.35;21.35;;;;;;;-0.42;100.00;99751.66;4916349;29;20042;-92
2023/12/03 03:56:56;;;;;;;129.35;21.25;;;;;;;-0.41;100.00;99755.91;4901272;29;20028;-92
2023/12/03 03:59:22;;;;;;;150.13;23.17;;;;;;;-0.35;100.00;99769.47;4869146;29;20127;-91
2023/12/03 04:01:48;;;;;;;172.48;22.45;;;;;;;-0.33;100.00;99765.00;4885233;29;20052;-92
2023/12/03 04:04:13;;;;;;;141.10;23.00;;;;;;;-0.31;100.00;99766.59;4868348;29;20047;-92
2023/12/03 04:06:47;;;;;;;227.68;24.45;;;;;;;-0.23;100.00;99760.09;4900864;29;20044;-92
2023/12/03 04:09:15;;;;;;;323.85;27.63;;;;;;;-0.19;100.00;99761.59;4905963;29;20036;-92
2023/12/03 04:11:43;;;;;;;210.70;25.25;;;;;;;-0.17;100.00;99770.13;4898037;29;20535;-92
2023/12/03 04:14:19;;;;;;;242.32;25.42;;;;;;;-0.13;100.00;99767.25;4899489;29;20152;-92
2023/12/03 04:16:45;;;;;;;108.10;19.70;;;;;;;-0.10;100.00;99752.41;4892588;29;21401;-92
2023/12/03 04:19:11;;;;;;;264.35;27.67;;;;;;;-0.02;100.00;99755.41;4858118;29;20048;-92
2023/12/03 04:21:38;;;;;;;156.25;21.85;;;;;;;0.04;100.00;99756.78;4880162;29;20054;-92
2023/12/03 04:24:04;;;;;;;190.15;23.38;;;;;;;0.07;100.00;99753.97;4880370;29;20052;-91
2023/12/03 04:26:30;;;;;;;112.82;21.05;;;;;;;0.09;100.00;99745.19;4897559;29;20068;-92
2023/12/03 04:28:56;;;;;;;182.48;21.27;;;;;;;0.15;100.00;99736.16;4892020;29;20390;-92
2023/12/03 04:31:25;;;;;;;217.10;21.35;;;;;;;0.20;100.00;99733.28;4860989;29;20060;-92
2023/12/03 04:33:53;;;;;;;136.82;18.30;;;;;;;0.14;100.00;99728.47;4883997;29;20657;-92
2023/12/03 04:36:23;;;;;;;147.20;20.45;;;;;;;0.19;100.00;99731.63;4899978;29;20032;-92
2023/12/03 04:38:50;;;;;;;172.43;20.42;;;;;;;0.23;100.00;99739.13;4872760;29;20028;-92
2023/12/03 04:41:17;;;;;;;136.98;22.25;;;;;;;0.26;100.00;99737.25;4900222;29;20048;-92
2023/12/03 04:43:42;;;;;;;253.43;26.15;;;;;;;0.28;100.00;99741.44;4894531;29;20127;-92
2023/12/03 04:46:08;;;;;;;414.35;31.00;;;;;;;0.25;100.00;99736.44;4905504;29;20119;-92
2023/12/03 04:48:34;;;;;;;388.85;31.45;;;;;;;0.24;100.00;99737.34;4897407;29;20048;-92
2023/12/03 04:51:01;;;;;;;180.15;24.88;;;;;;;0.23;100.00;99730.50;4884123;29;20043;-93
2023/12/03 04:53:27;;;;;;;246.48;25.30;;;;;;;0.26;100.00;99745.03;4859973;29;20046;-92
2023/12/03 04:55:52;;;;;;;177.23;24.17;;;;;;;0.26;100.00;99743.28;4897674;29;20127;-92
2023/12/03 04:58:18;;;;;;;147.82;23.75;;;;;;;0.27;100.00;99737.16;4890984;29;20043;-92
2023/12/03 05:00:44;;;;;;;305.45;30.00;;;;;;;0.31;100.00;99735.22;4896337;29;20032;-93
2023/12/03 05:03:09;;;;;;;116.45;22.45;;;;;;;0.33;100.00;99730.75;4895188;29;20086;-92
2023/12/03 05:05:36;;;;;;;98.93;23.08;;;;;;;0.35;100.00;99731.50;4899330;29;20044;-92
2023/12/03 05:08:01;;;;;;;171.82;25.42;;;;;;;0.35;100.00;99723.72;4881966;29;20039;-92
2023/12/03 05:10:29;;;;;;;227.55;23.95;;;;;;;0.37;100.00;99729.63;4879411;29;20128;-93
2023/12/03 05:12:55;;;;;;;216.10;25.40;;;;;;;0.35;100.00;99721.91;4878689;29;20044;-93
2023/12/03 05:15:21;;;;;;;187.98;26.42;;;;;;;0.39;100.00;99726.94;4895573;29;20130;-92
2023/12/03 05:17:47;;;;;;;107.28;21.83;;;;;;;0.38;100.00;99726.13;4897090;29;20035;-92
2023/12/03 05:20:13;;;;;;;95.45;19.60;;;;;;;0.35;100.00;99723.72;4894313;29;20039;-92
2023/12/03 05:22:39;;;;;;;189.48;25.10;;;;;;;0.35;100.00;99718.50;4880552;29;20037;-93
2023/12/03 05:25:06;;;;;;;134.50;21.60;;;;;;;0.38;100.00;99713.13;4842336;29;20061;-93
2023/12/03 05:27:32;;;;;;;92.03;23.00;;;;;;;0.35;100.00;99716.72;4896483;29;20045;-94
2023/12/03 05:29:58;;;;;;;81.45;20.92;;;;;;;0.36;100.00;99707.16;4881627;29;20047;-93
2023/12/03 05:32:24;;;;;;;83.57;22.58;;;;;;;0.38;100.00;99707.06;4911617;29;20055;-93
2023/12/03 05:34:50;;;;;;;81.95;21.88;;;;;;;0.38;100.00;99710.50;4881917;29;20168;-93
2023/12/03 05:37:16;;;;;;;73.30;20.38;;;;;;;0.37;100.00;99706.22;4897778;29;20479;-93
2023/12/03 05:39:43;;;;;;;86.90;21.90;;;;;;;0.42;100.00;99718.94;4898649;29;20494;-94
2023/12/03 05:42:09;;;;;;;87.68;21.30;;;;;;;0.42;100.00;99716.34;4893423;29;20040;-94
2023/12/03 05:44:35;;;;;;;68.60;18.48;;;;;;;0.44;100.00;99710.13;4895828;29;20044;-94
2023/12/03 05:47:01;;;;;;;57.13;19.90;;;;;;;0.37;100.00;99706.22;4889698;29;20491;-95
2023/12/03 05:49:27;;;;;;;106.65;21.17;;;;;;;0.39;100.00;99709.56;4864057;29;20152;-96
2023/12/03 05:51:54;;;;;;;88.35;21.40;;;;;;;0.39;100.00;99706.97;4888454;29;20044;-95
2023/12/03 05:54:20;;;;;;;75.28;21.13;;;;;;;0.38;100.00;99705.31;4882604;29;20119;-95
2023/12/03 05:56:46;;;;;;;51.97;20.10;;;;;;;0.43;100.00;99716.22;4861116;29;20044;-95
2023/12/03 05:59:14;;;;;;;58.97;21.50;;;;;;;0.39;100.00;99708.72;4895016;29;20119;-94
2023/12/03 06:01:40;;;;;;;63.03;20.67;;;;;;;0.41;100.00;99714.69;4879034;29;20503;-95
2023/12/03 06:04:08;;;;;;;55.40;20.13;;;;;;;0.40;100.00;99706.03;4864589;29;20088;-95
2023/12/03 06:06:35;;;;;;;53.83;21.25;;;;;;;0.45;100.00;99719.59;4881068;29;20048;-95
2023/12/03 06:09:03;;;;;;;49.35;19.92;;;;;;;0.44;100.00;99717.94;4862552;29;20037;-96
2023/12/03 06:11:29;;;;;;;63.70;21.00;;;;;;;0.44;100.00;99709.28;4868762;29;20036;-96
2023/12/03 06:13:57;;;;;;;64.60;19.73;;;;;;;0.45;100.00;99721.34;4869735;29;20037;-96
2023/12/03 06:16:23;;;;;;;60.13;19.58;;;;;;;0.43;100.00;99712.81;4862173;29;20450;-95
2023/12/03 06:18:49;;;;;;;68.10;20.23;;;;;;;0.40;100.00;99702.63;4876620;29;20075;-95
2023/12/03 06:21:15;;;;;;;52.00;19.65;;;;;;;0.43;100.00;99705.03;4871619;29;20047;-96
2023/12/03 06:23:41;;;;;;;51.72;20.23;;;;;;;0.46;100.00;99702.22;4866615;29;20036;-96
2023/12/03 06:26:07;;;;;;;67.93;20.15;;;;;;;0.45;100.00;99693.59;4862771;29;20046;-95
2023/12/03 06:28:33;;;;;;;54.53;20.65;;;;;;;0.44;100.00;99697.13;4881277;29;20079;-95
2023/12/03 06:30:59;;;;;;;64.38;21.55;;;;;;;0.42;100.00;99705.94;4866340;29;20127;-96
2023/12/03 06:33:25;;;;;;;64.63;23.23;;;;;;;0.46;100.00;99710.03;4879102;29;20462;-95
2023/12/03 06:35:53;;;;;;;60.10;20.98;;;;;;;0.51;100.00;99709.72;4876988;29;20032;-96
2023/12/03 06:38:19;;;;;;;77.95;23.73;;;;;;;0.44;100.00;99696.28;4886666;29;20570;-95
2023/12/03 06:40:45;;;;;;;75.13;21.33;;;;;;;0.45;100.00;99701.38;4870459;29;20048;-95
2023/12/03 06:43:11;;;;;;;74.28;22.67;;;;;;;0.45;100.00;99705.75;4912985;29;20044;-95
2023/12/03 06:45:37;;;;;;;82.40;23.00;;;;;;;0.44;100.00;99704.06;4888963;29;20402;-96
2023/12/03 06:48:04;;;;;;;61.58;22.67;;;;;;;0.45;100.00;99705.75;4883752;29;20056;-94
2023/12/03 06:50:29;;;;;;;60.45;21.92;;;;;;;0.45;100.00;99708.34;4870074;29;20044;-94
2023/12/03 06:52:55;;;;;;;60.10;22.92;;;;;;;0.47;100.00;99701.28;4866740;29;20044;-95
2023/12/03 06:55:21;;;;;;;60.60;21.73;;;;;;;0.42;100.00;99696.38;4870440;29;20055;-95
2023/12/03 06:57:47;;;;;;;65.30;22.65;;;;;;;0.47;100.00;99693.47;4868910;29;20040;-95
2023/12/03 07:00:13;;;;;;;48.88;21.48;;;;;;;0.48;100.00;99703.78;4868962;29;20521;-95
2023/12/03 07:02:39;;;;;;;62.50;21.92;;;;;;;0.43;100.00;99695.44;4888770;29;20043;-95
2023/12/03 07:05:05;;;;;;;60.97;21.85;;;;;;;0.46;100.00;99700.44;4867631;29;20036;-95
2023/12/03 07:07:31;;;;;;;56.55;22.42;;;;;;;0.44;100.00;99697.13;4875024;29;20238;-95
2023/12/03 07:09:57;;;;;;;45.95;20.73;;;;;;;0.44;100.00;99696.28;4879189;29;20067;-95
2023/12/03 07:12:22;;;;;;;46.33;21.25;;;;;;;0.42;100.00;99693.78;4882208;29;20392;-94
2023/12/03 07:14:48;;;;;;;55.58;20.60;;;;;;;0.40;100.00;99697.41;4877658;29;20461;-95
2023/12/03 07:17:14;;;;;;;43.63;19.58;;;;;;;0.39;100.00;99685.31;4884031;29;20407;-95
2023/12/03 07:19:46;;;;;;;45.03;20.30;;;;;;;0.46;100.00;99695.25;4874830;29;20036;-95
2023/12/03 07:22:12;;;;;;;45.35;19.83;;;;;;;0.45;100.00;99687.53;4884828;29;20032;-96
2023/12/03 07:24:39;;;;;;;47.95;19.45;;;;;;;0.43;100.00;99684.22;4865801;29;20052;-95
2023/12/03 07:27:05;;;;;;;44.90;20.25;;;;;;;0.44;100.00;99680.69;4866062;29;20039;-94
2023/12/03 07:29:31;;;;;;;39.72;19.17;;;;;;;0.48;100.00;99672.59;4883325;29;20059;-94
2023/12/03 07:31:58;;;;;;;36.58;17.75;;;;;;;0.47;100.00;99681.31;4881611;29;20052;-95
2023/12/03 07:34:25;;;;;;;32.00;15.57;;;;;;;0.47;100.00;99672.69;4881186;29;20056;-95
2023/12/03 07:36:52;;;;;;;39.33;17.15;;;;;;;0.53;100.00;99677.50;4856358;29;20370;-95
2023/12/03 07:39:18;;;;;;;37.88;18.00;;;;;;;0.57;100.00;99689.38;4866562;29;20135;-95
2023/12/03 07:41:51;;;;;;;35.63;18.42;;;;;;;0.62;100.00;99689.09;4862605;29;20118;-95
2023/12/03 07:44:17;;;;;;;35.35;17.42;;;;;;;0.56;100.00;99695.50;4866505;29;20138;-95
2023/12/03 07:46:43;;;;;;;35.65;17.38;;;;;;;0.56;100.00;99692.88;4867684;29;20040;-95
2023/12/03 07:49:09;;;;;;;34.63;15.98;;;;;;;0.52;100.00;99681.03;4883709;29;20051;-95
2023/12/03 07:51:34;;;;;;;33.85;16.10;;;;;;;0.53;100.00;99692.25;4867496;29;20366;-95
2023/12/03 07:54:00;;;;;;;34.67;16.27;;;;;;;0.45;100.00;99687.53;4868159;29;20040;-95
2023/12/03 07:56:36;;;;;;;34.78;16.85;;;;;;;0.50;100.00;99688.09;4876708;29;20444;-96
2023/12/03 07:59:02;;;;;;;40.28;16.55;;;;;;;0.43;100.00;99690.22;4886328;29;20032;-95
2023/12/03 08:01:28;;;;;;;39.25;17.10;;;;;;;0.40;100.00;99685.22;4883507;29;20075;-95
2023/12/03 08:03:54;;;;;;;36.92;15.82;;;;;;;0.42;100.00;99687.72;4859214;29;20078;-96
2023/12/03 08:06:20;;;;;;;39.25;17.73;;;;;;;0.41;100.00;99693.88;4897710;29;20032;-95
2023/12/03 08:08:45;;;;;;;37.05;17.60;;;;;;;0.41;100.00;99699.91;4864640;29;20064;-95
2023/12/03 08:11:11;;;;;;;40.65;17.85;;;;;;;0.41;100.00;99691.28;4866994;29;20028;-95
2023/12/03 08:13:37;;;;;;;30.63;15.55;;;;;;;0.41;100.00;99694.72;4883474;29;20509;-95
2023/12/03 08:16:04;;;;;;;37.50;17.98;;;;;;;0.41;100.00;99694.72;4868260;29;20036;-95
2023/12/03 08:18:33;;;;;;;31.88;16.23;;;;;;;0.50;100.00;99703.69;4875154;29;20036;-95
2023/12/03 08:20:59;;;;;;;32.75;16.95;;;;;;;0.48;100.00;99700.34;4882356;29;20066;-95
2023/12/03 08:23:27;;;;;;;34.33;16.35;;;;;;;0.53;100.00;99708.69;4885929;29;20040;-95
2023/12/03 08:25:54;;;;;;;32.25;16.75;;;;;;;0.49;100.00;99707.22;4896651;29;20062;-95
2023/12/03 08:28:20;;;;;;;30.13;15.48;;;;;;;0.48;100.00;99702.94;4864867;29;20032;-94
2023/12/03 08:30:47;;;;;;;30.63;16.10;;;;;;;0.51;100.00;99707.13;4866289;29;20044;-94
2023/12/03 08:33:13;;;;;;;26.42;14.90;;;;;;;0.48;100.00;99702.94;4875942;29;20036;-94
2023/12/03 08:35:39;;;;;;;25.23;13.68;;;;;;;0.46;100.00;99699.63;4869029;29;20410;-95
2023/12/03 08:38:05;;;;;;;23.48;14.20;;;;;;;0.45;100.00;99697.94;4912650;29;20036;-94
2023/12/03 08:40:32;;;;;;;23.25;13.73;;;;;;;0.45;100.00;99705.75;4863649;29;20123;-95
2023/12/03 08:42:59;;;;;;;29.23;14.55;;;;;;;0.50;100.00;99706.28;4878905;29;20119;-95
2023/12/03 08:45:25;;;;;;;26.90;14.05;;;;;;;0.51;100.00;99707.13;4897721;29;20484;-95
2023/12/03 08:47:51;;;;;;;25.55;13.88;;;;;;;0.49;100.00;99702.84;4869949;29;20121;-94
2023/12/03 08:50:17;;;;;;;24.02;14.32;;;;;;;0.50;100.00;99695.88;4876607;29;20048;-94
2023/12/03 08:52:42;;;;;;;23.77;14.57;;;;;;;0.50;100.00;99698.50;4869136;29;20071;-95
2023/12/03 08:55:08;;;;;;;34.03;15.73;;;;;;;0.48;100.00;99696.00;4882479;29;20040;-94
2023/12/03 08:57:35;;;;;;;46.60;17.98;;;;;;;0.46;100.00;99697.03;4868229;29;20040;-95
2023/12/03 09:00:01;;;;;;;68.50;15.45;;;;;;;0.42;100.00;99688.56;4891836;29;20046;-95
2023/12/03 09:02:27;;;;;;;111.68;17.20;;;;;;;0.40;100.00;99697.41;4867229;29;20051;-94
2023/12/03 09:04:54;;;;;;;69.05;16.88;;;;;;;0.36;100.00;99700.22;4868021;29;20040;-94
2023/12/03 09:07:19;;;;;;;98.82;16.77;;;;;;;0.37;100.00;99708.81;4868354;29;20044;-94
2023/12/03 09:09:45;;;;;;;122.03;16.20;;;;;;;0.34;100.00;99701.22;4868692;29;20051;-94
2023/12/03 09:12:11;;;;;;;131.20;16.05;;;;;;;0.33;100.00;99709.97;4882285;29;20044;-95
2023/12/03 09:14:37;;;;;;;269.00;20.40;;;;;;;0.35;100.00;99702.91;4880877;29;20051;-94
2023/12/03 09:17:04;;;;;;;234.18;18.60;;;;;;;0.33;100.00;99712.56;4871054;29;20032;-94
2023/12/03 09:19:30;;;;;;;312.63;22.92;;;;;;;0.28;100.00;99704.22;4867043;29;20048;-95
2023/12/03 09:21:55;;;;;;;275.45;19.77;;;;;;;0.27;100.00;99702.56;4877330;29;20036;-95
2023/12/03 09:24:21;;;;;;;316.80;22.70;;;;;;;0.28;100.00;99707.66;4879348;29;20036;-96
2023/12/03 09:26:47;;;;;;;321.85;24.02;;;;;;;0.28;100.00;99706.81;4880961;29;20036;-94
2023/12/03 09:29:13;;;;;;;368.33;22.40;;;;;;;0.27;100.00;99707.75;4864848;29;20075;-95
2023/12/03 09:31:39;;;;;;;314.08;21.63;;;;;;;0.28;100.00;99706.81;4875731;29;20052;-95
2023/12/03 09:34:06;;;;;;;99.10;10.73;;;;;;;0.29;100.00;99708.50;4866591;29;20044;-94
2023/12/03 09:36:32;;;;;;;306.05;19.70;;;;;;;0.26;100.00;99701.69;4883355;29;20071;-95
2023/12/03 09:38:58;;;;;;;292.85;20.45;;;;;;;0.26;100.00;99706.91;4881899;29;20079;-94
2023/12/03 09:41:24;;;;;;;372.90;21.73;;;;;;;0.30;100.00;99704.94;4863617;29;20048;-96
2023/12/03 09:43:57;;;;;;;135.15;14.88;;;;;;;0.37;100.00;99711.44;4862738;29;20727;-96
2023/12/03 09:46:24;;;;;;;271.27;18.75;;;;;;;0.32;100.00;99710.91;4868679;29;20431;-96
2023/12/03 09:48:52;;;;;;;99.40;14.07;;;;;;;0.38;100.00;99701.88;4875239;29;20172;-93
2023/12/03 09:51:19;;;;;;;288.73;19.60;;;;;;;0.34;100.00;99698.63;4896397;29;20039;-94
2023/12/03 09:53:46;;;;;;;272.58;20.40;;;;;;;0.38;100.00;99701.88;4864877;29;20044;-94
2023/12/03 09:56:13;;;;;;;324.98;22.17;;;;;;;0.42;100.00;99701.56;4892722;29;20040;-94
2023/12/03 09:58:39;;;;;;;126.45;15.68;;;;;;;0.44;100.00;99702.31;4868379;29;20518;-95
2023/12/03 10:01:05;;;;;;;180.55;16.73;;;;;;;0.43;100.00;99700.63;4865787;29;20044;-95
2023/12/03 10:03:31;;;;;;;366.23;22.48;;;;;;;0.38;100.00;99701.88;4876062;29;20051;-95
2023/12/03 10:05:57;;;;;;;217.75;19.33;;;;;;;0.39;100.00;99696.56;4870893;29;20032;-96
2023/12/03 10:08:23;;;;;;;143.73;12.93;;;;;;;0.40;100.00;99703.44;4863196;29;20060;-95
2023/12/03 10:10:58;;;;;;;171.73;16.00;;;;;;;0.42;100.00;99708.53;4882401;29;20479;-94
2023/12/03 10:13:26;;;;;;;200.38;15.88;;;;;;;0.39;100.00;99708.72;4880857;29;20048;-94
2023/12/03 10:15:53;;;;;;;283.90;18.35;;;;;;;0.34;100.00;99703.81;4853523;29;20047;-95
2023/12/03 10:18:19;;;;;;;218.45;17.42;;;;;;;0.39;100.00;99708.72;4894887;29;20497;-96
2023/12/03 10:20:45;;;;;;;110.93;13.10;;;;;;;0.39;100.00;99708.72;4878954;29;20040;-96
2023/12/03 10:23:15;;;;;;;106.47;13.13;;;;;;;0.46;100.00;99715.22;4872859;29;20045;-95
2023/12/03 10:25:41;;;;;;;87.38;12.13;;;;;;;0.40;100.00;99715.63;4884576;29;20036;-95
2023/12/03 10:28:11;;;;;;;89.53;10.77;;;;;;;0.45;100.00;99713.53;4863182;29;20070;-94
2023/12/03 10:30:37;;;;;;;134.65;11.73;;;;;;;0.44;100.00;99712.72;4870239;29;20044;-94
2023/12/03 10:33:04;;;;;;;87.32;10.73;;;;;;;0.42;100.00;99704.19;4872456;29;20055;-95
2023/12/03 10:35:37;;;;;;;135.13;12.93;;;;;;;0.55;100.00;99714.63;4876500;29;20032;-94
2023/12/03 10:38:09;;;;;;;87.82;11.57;;;;;;;0.58;100.00;99718.81;4886587;29;20041;-95
2023/12/03 10:40:35;;;;;;;89.97;11.18;;;;;;;0.50;100.00;99716.69;4875764;29;20100;-95
2023/12/03 10:43:02;;;;;;;156.23;13.80;;;;;;;0.55;100.00;99713.78;4858725;29;20048;-95
2023/12/03 10:45:29;;;;;;;82.43;11.38;;;;;;;0.62;100.00;99712.50;4867191;29;20103;-95
2023/12/03 10:47:59;;;;;;;84.38;11.63;;;;;;;0.72;100.00;99728.31;4858252;29;20041;-96
2023/12/03 10:50:27;;;;;;;37.45;9.52;;;;;;;0.67;100.00;99707.81;4860712;29;20072;-96
2023/12/03 10:52:55;;;;;;;118.22;11.98;;;;;;;0.71;100.00;99711.91;4860499;29;20048;-95
2023/12/03 10:55:24;;;;;;;20.80;8.15;;;;;;;0.73;100.00;99719.59;4864761;29;20116;-96
2023/12/03 10:58:02;;;;;;;148.60;14.90;;;;;;;0.70;100.00;99712.81;4883943;29;20539;-96
2023/12/03 11:00:38;;;;;;;41.35;9.10;;;;;;;0.68;100.00;99717.28;4862534;29;20036;-96
2023/12/03 11:03:14;;;;;;;;;;;;;;;0.66;100.00;99719.16;4867222;29;20104;-96
2023/12/03 12:06:53;;;;;;;;;;;;;;;;;;;;;
2023/12/03 12:10:51;;;;;;;145.93;17.52;;;;;;;0.75;100.00;99678.69;4883463;29;20112;-88